• Join FlightAware (Why Join?)
  • Login
  • US Flag 
05:22PM EDT


 

Airport Tracker/Info


-or-


 

Live Flight TrackerFlight Track Log ✈ ASQ5199 ✈ 11-May-2013 ✈ KDTW - KCLT

Flight Track Log - Related Links

Times and Time Zones

All times are in EDT time to prevent confusion due to time zone crossing. See the ASQ5199 flight status page for this flight to view local times or setup timezone preferences in your user account.

Time Position Orientation Groundspeed Altitude Reporting Facility
EDT Latitude Longitude Course Direction KTS MPH feet Rate Location/Type
08:05PM 42.2017 -83.3553 188° South 168 193 1,400  Level Cleveland Center
08:06PM 42.1325 -83.3692 188° South 257 296 4,200 2,700 Climbing Cleveland Center
08:07PM 42.0633 -83.3800 187° South 252 290 7,500 2,760 Climbing Cleveland Center
08:08PM 42.0258 -83.3814 182° South 289 333 8,700 2,100 Climbing Cleveland Center
08:09PM 41.9544 -83.4006 191° South 282 325 10,900 2,040 Climbing Cleveland Center
08:10PM 41.8703 -83.4331 196° South 278 320 12,800 1,800 Climbing Cleveland Center
08:11PM 41.7883 -83.4656 196° South 296 341 14,600 1,680 Climbing Cleveland Center
08:12PM 41.6975 -83.5033 197° South 323 372 16,200 1,680 Climbing Cleveland Center
08:13PM 41.6028 -83.5378 195° South 337 388 18,000 1,800 Climbing Cleveland Center
08:14PM 41.5081 -83.5778 198° South 355 409 19,800 1,560 Climbing Cleveland Center
08:15PM 41.4239 -83.6100 196° South 355 409 21,200 1,500 Climbing Cleveland Center
08:16PM 41.3269 -83.6469 196° South 367 422 22,800 1,500 Climbing Cleveland Center
08:17PM 41.2278 -83.6864 197° South 367 422 24,300 1,500 Climbing Cleveland Center
08:19PM 41.0372 -83.7589 196° South 366 421 27,200 1,380 Climbing Indianapolis Center
08:20PM 40.9372 -83.7964 196° South 370 426 28,500 1,320 Climbing Indianapolis Center
08:21PM 40.8378 -83.8342 196° South 368 423 29,900 1,140 Climbing Indianapolis Center
08:22PM 40.7389 -83.8725 196° South 366 421 30,900 540 Climbing Indianapolis Center
08:23PM 40.6344 -83.9117 196° South 384 442 31,000  Climbing Indianapolis Center
08:24PM 40.5247 -83.9531 196° South 404 465 31,000  Level Indianapolis Center
08:25PM 40.4117 -83.9978 197° South 419 482 31,100 420 Climbing Indianapolis Center
08:26PM 40.2975 -84.0386 195° South 420 483 31,900 720 Climbing Indianapolis Center
08:27PM 40.1803 -84.0592 188° South 424 488 32,600 540 Climbing Indianapolis Center
08:28PM 40.0625 -84.0803 188° South 425 489 33,000 180 Climbing Indianapolis Center
08:29PM 39.9242 -84.1036 187° South 427 491 33,000  Level Indianapolis Center
08:30PM 39.8058 -84.1239 187° South 429 494 33,000  Level Indianapolis Center
08:31PM 39.6872 -84.1428 187° South 428 493 33,000  Level Indianapolis Center
08:32PM 39.5683 -84.1633 188° South 428 493 33,000  Level Indianapolis Center
08:33PM 39.4489 -84.1822 187° South 430 495 33,000 -300 Level Indianapolis Center
08:34PM 39.3267 -84.1639 173° South 450 518 32,500 -540 Descending Indianapolis Center
08:35PM 39.2092 -84.0828 152° Southeast 474 545 32,000 -540 Descending Indianapolis Center
08:36PM 39.0906 -83.9981 151° Southeast 483 556 31,500 -540 Descending Indianapolis Center
08:37PM 38.9725 -83.9133 151° Southeast 485 558 31,000 -300 Descending Indianapolis Center
08:38PM 38.8556 -83.8258 150° Southeast 482 555 31,000  Level Indianapolis Center
08:39PM 38.7383 -83.7411 151° Southeast 480 552 31,000  Level Indianapolis Center
08:40PM 38.6133 -83.6503 150° Southeast 473 544 31,000  Level Indianapolis Center
08:41PM 38.4981 -83.5681 151° Southeast 471 542 31,000  Level Indianapolis Center
08:42PM 38.3847 -83.4847 150° Southeast 469 540 31,000  Level Indianapolis Center
08:43PM 38.2697 -83.4022 151° Southeast 472 543 31,000  Level Indianapolis Center
08:44PM 38.1542 -83.3206 151° Southeast 474 545 31,000  Level Indianapolis Center
08:45PM 38.0406 -83.2378 150° Southeast 470 541 31,000  Level Indianapolis Center
08:46PM 37.9244 -83.1569 151° Southeast 473 544 31,000  Level Indianapolis Center
08:47PM 37.8086 -83.0753 151° Southeast 475 547 31,000  Level Indianapolis Center
08:48PM 37.6925 -82.9931 151° Southeast 477 549 31,000 -60 Level Indianapolis Center
08:49PM 37.5756 -82.9117 151° Southeast 478 550 30,900 -300 Descending Indianapolis Center
08:50PM 37.4594 -82.8319 151° Southeast 475 547 30,400 -600 Descending Indianapolis Center
08:51PM 37.3219 -82.7367 151° Southeast 479 551 29,800 -600 Descending Indianapolis Center
08:52PM 37.2036 -82.6533 151° Southeast 482 555 29,300 -420 Descending Indianapolis Center
08:53PM 37.0847 -82.5722 151° Southeast 480 552 29,000 -180 Descending Indianapolis Center
08:54PM 36.9681 -82.4914 151° Southeast 474 545 29,000 -420 Level Indianapolis Center
08:55PM 36.8483 -82.4106 152° Southeast 481 554 28,200 -780 Descending Indianapolis Center
08:56PM 36.8272 -82.3947 149° Southeast 484 557 28,000 -1,020 Descending Atlanta Center
08:57PM 36.7136 -82.3192 152° Southeast 478 550 26,900 -1,320 Descending Atlanta Center
08:58PM 36.5978 -82.2417 152° Southeast 478 550 25,400 -1,440 Descending Atlanta Center
08:59PM 36.4861 -82.1692 152° Southeast 473 544 24,100 -720 Descending Atlanta Center
09:00PM 36.3744 -82.0944 152° Southeast 461 531 24,000 -180 Descending Atlanta Center
09:01PM 36.2606 -82.0200 152° Southeast 461 531 23,800 -1,200 Descending Atlanta Center
09:02PM 36.1447 -81.9433 152° Southeast 445 512 21,600 -1,500 Descending Atlanta Center
09:03PM 36.0539 -81.8814 151° Southeast 412 474 20,900 -840 Descending Atlanta Center
09:04PM 35.9736 -81.8269 151° Southeast 345 397 20,000 -900 Descending Atlanta Center
09:05PM 35.8997 -81.7803 153° Southeast 325 374 19,100 -960 Descending Atlanta Center
09:06PM 35.8175 -81.7264 152° Southeast 331 381 18,100 -1,020 Descending Atlanta Center
09:07PM 35.7372 -81.6747 152° Southeast 331 381 17,100 -600 Descending Atlanta Center
09:08PM 35.6589 -81.6233 152° Southeast 331 381 17,000 -360 Descending Atlanta Center
09:09PM 35.5808 -81.5772 154° Southeast 323 372 16,400 -540 Descending Atlanta Center
09:10PM 35.5361 -81.6322 225° Southwest 218 251 16,000 -660 Descending Atlanta Center
09:11PM 35.5483 -81.7236 279° West 214 246 15,100 -960 Descending Atlanta Center
09:12PM 35.5936 -81.8067 304° West 274 315 14,100 -600 Descending Atlanta Center
09:13PM 35.6472 -81.8844 310° West 274 315 14,000  Descending Atlanta Center
09:14PM 35.7258 -81.8492 20° North 242 278 14,100 -300 Climbing Atlanta Center
09:15PM 35.7094 -81.7472 101° East 196 226 13,500 -840 Descending Atlanta Center
09:16PM 35.6533 -81.6594 128° Southeast 312 359 12,500 -1,140 Descending Atlanta Center
09:16PM 35.6533 -81.6594 128° Southeast 219 252 12,400 -960 Descending Atlanta Center
09:16PM 35.6361 -81.6317 127° Southeast 310 357 12,200 -420 Descending Atlanta Center
09:17PM 35.5997 -81.5767 129° Southeast 279 321 12,000 -120 Descending Atlanta Center
09:17PM 35.5825 -81.5492 128° Southeast 310 357 12,100  Climbing Atlanta Center
09:18PM 35.5561 -81.4836 116° Southeast 310 357 12,000 -120 Descending Atlanta Center
09:18PM 35.5450 -81.4506 112° Southeast 322 371 12,000 -1,020 Level Atlanta Center
09:19PM 35.5225 -81.3825 112° Southeast 316 364 11,000 -1,380 Descending Atlanta Center
09:19PM 35.5156 -81.3469 103° East 322 371 10,600 -1,500 Descending Atlanta Center
09:20PM 35.5119 -81.2756 94° East 308 354 9,500 -1,500 Descending Atlanta Center
09:20PM 35.5217 -81.2422 70° East 322 371 9,100 -1,500 Descending Atlanta Center
09:21PM 35.5303 -81.1678 82° East 308 354 8,000 -1,500 Descending Atlanta Center
09:21PM 35.5336 -81.1344 83° East 315 362 7,600 -1,500 Descending Atlanta Center
09:22PM 35.5175 -81.0664 106° East 302 348 6,500 -1,500 Descending Atlanta Center
09:22PM 35.4961 -81.0517 151° Southeast 292 336 6,100 -1,740 Descending Atlanta Center
09:23PM 35.4536 -81.0125 143° Southeast 262 302 4,800 -1,860 Descending Atlanta Center
09:23PM 35.4367 -81.0056 162° South 273 314 4,400 -1,800 Descending Atlanta Center
09:24PM 35.3878 -80.9717 151° Southeast 262 302 3,000 -1,320 Descending Atlanta Center
09:24PM 35.3711 -80.9672 168° South 249 287 3,100 -300 Climbing Atlanta Center
09:25PM 35.3292 -80.9636 176° South 227 261 2,700 -540 Descending Atlanta Center
09:25PM 35.3167 -80.9639 181° South 175 201 2,600 -840 Descending Atlanta Center
09:26PM 35.2644 -80.9583 175° South 160 184 1,600 -900 Descending Atlanta Center
09:28PM 35.2137 -80.9491 39° Northeast  Level Estimated
09:35PM 35.2137 -80.9491 39° Northeast  Level Estimated